This is the latest recevied weather packets stored in our database for station/object KD9ZDW. If no packets are shown the sender has not sent any weather packets the latest 10 day(s).
| Time | Temp. | Humidity | Pressure | Rain* | Wind** | Luminosity | Snow |
|---|---|---|---|---|---|---|---|
| 1777933082 | 23.89° C | 43% | 1004.5 hPa | 0 mm | - | 79 W/m² | - |
| 1777932778 | 23.89° C | 42% | 1004.8 hPa | 0 mm | - | 78 W/m² | - |
| 1777932475 | 23.89° C | 42% | 1004.3 hPa | 0 mm | - | 202 W/m² | - |
| 1777932172 | 24.44° C | 42% | 1004.3 hPa | 0 mm | - | 192 W/m² | - |
| 1777931869 | 23.89° C | 43% | 1004.4 hPa | 0 mm | - | 150 W/m² | - |
| 1777931566 | 24.44° C | 42% | 1004.3 hPa | 0 mm | - | 182 W/m² | - |
| 1777931261 | 24.44° C | 42% | 1003.9 hPa | 0 mm | - | 297 W/m² | - |
| 1777930958 | 24.44° C | 42% | 1004.3 hPa | 0 mm | - | 131 W/m² | - |
| 1777930655 | 24.44° C | 42% | 1004.1 hPa | 0 mm | - | 321 W/m² | - |
| 1777930351 | 25° C | 42% | 1004.1 hPa | 0 mm | - | 333 W/m² | - |
| 1777930049 | 25° C | 42% | 1004.1 hPa | 0 mm | - | 349 W/m² | - |
| 1777929745 | 23.89° C | 45% | 1004.1 hPa | 0 mm | - | 394 W/m² | - |
| 1777929443 | 25° C | 42% | 1004.3 hPa | 0 mm | - | 123 W/m² | - |
| 1777929139 | 25° C | 42% | 1004.1 hPa | 0 mm | - | 383 W/m² | - |
| 1777928836 | 25° C | 41% | 1004.2 hPa | 0 mm | - | 279 W/m² | - |
| 1777928533 | 24.44° C | 42% | 1004.1 hPa | 0 mm | - | 431 W/m² | - |
| 1777928230 | 24.44° C | 43% | 1004.1 hPa | 0 mm | - | 456 W/m² | - |
| 1777927928 | 24.44° C | 43% | 1004.3 hPa | 0 mm | - | 445 W/m² | - |
| 1777927626 | 24.44° C | 43% | 1004.2 hPa | 0 mm | - | 458 W/m² | - |
| 1777927324 | 24.44° C | 43% | 1004.1 hPa | 0 mm | - | 463 W/m² | - |
| 1777927023 | 25° C | 42% | 1003.9 hPa | 0 mm | - | 479 W/m² | - |
| 1777926720 | 25° C | 43% | 1004.2 hPa | 0 mm | - | 523 W/m² | - |
| 1777926420 | 24.44° C | 43% | 1004.2 hPa | 0 mm | - | 504 W/m² | - |
| 1777926118 | 25° C | 43% | 1004.2 hPa | 0 mm | - | 510 W/m² | - |
| 1777925814 | 25° C | 43% | 1004.2 hPa | 0 mm | - | 524 W/m² | - |
* Rain latest hour (hover to see other rain measurements)
** Current wind speed in m/s (hover to see current wind gust speed)